Flight Track Log - Related Links

Times and Time Zones

All times are in EDT time to prevent confusion due to time zone crossing. See the N762NC flight status page for this flight to view local times or setup timezone preferences in your user account.

Time Position Orientation Groundspeed Altitude Reporting Facility
EDT Latitude Longitude Course Direction KTS MPH feet Rate Location/Type
Fri 10:45:01 AM 42.2292 -83.3369 202° Southwest 150 173 1,200  Level Cleveland Center
Fri 10:46:09 AM 42.2875 -83.3394 358° North 226 260 3,100 2,000 Climbing Cleveland Center
Fri 10:47:16 AM 42.3556 -83.3678 343° North 244 281 5,700 2,250 Climbing Cleveland Center
Fri 10:48:17 AM 42.3658 -83.4581 279° West 282 325 7,900 2,051 Climbing Cleveland Center
Fri 10:49:00 AM 41.6891 -83.6654 180° South  Level Estimated
Fri 10:49:13 AM 42.3447 -83.5500 253° West 282 325 9,700  Level Cleveland Center
Fri 10:49:45 AM 42.3311 -83.5997 250° West 327 376 10,100 1,500 Climbing Cleveland Center
Fri 10:50:00 AM 41.5843 -83.7272 202° Southwest  Level Estimated
Fri 10:50:45 AM 42.2519 -83.6747 215° Southwest 369 425 12,000  Level Cleveland Center
Fri 10:51:45 AM 42.1567 -83.6447 167° South 334 384 13,000 1,050 Climbing Cleveland Center
Fri 10:52:45 AM 42.0644 -83.5844 154° Southeast 334 384 14,100 1,400 Climbing Cleveland Center
Fri 10:53:45 AM 41.9600 -83.5181 155° Southeast 364 419 15,800 1,750 Climbing Cleveland Center
Fri 10:54:45 AM 41.8697 -83.4608 155° Southeast 383 441 17,600 1,450 Climbing Cleveland Center
Fri 10:55:45 AM 41.7636 -83.4506 176° South 383 441 18,700 1,250 Climbing Cleveland Center
Fri 10:56:45 AM 41.6542 -83.4903 195° South 389 448 20,100 1,450 Climbing Cleveland Center
Fri 10:57:45 AM 41.5447 -83.5242 193° South 389 448 21,600 1,300 Climbing Cleveland Center
Fri 10:58:45 AM 41.4411 -83.5886 205° Southwest 400 460 22,700 1,050 Climbing Cleveland Center
Fri 10:59:45 AM 41.3511 -83.6786 217° Southwest 406 467 23,700 1,200 Climbing Cleveland Center
Fri 11:00:45 AM 41.2567 -83.7736 217° Southwest 419 482 25,100 1,250 Climbing Cleveland Center
Fri 11:01:45 AM 41.1564 -83.8542 211° Southwest 424 488 26,200 1,125 Climbing Cleveland Center
Fri 11:02:37 AM 41.0364 -83.8639 183° South 453 521 27,200 1,053 Climbing Indianapolis Center
Fri 11:03:39 AM 40.9100 -83.8906 189° South 448 516 28,200 823 Climbing Indianapolis Center
Fri 11:04:41 AM 40.7839 -83.9142 188° South 457 526 28,900 774 Climbing Indianapolis Center
Fri 11:05:43 AM 40.6572 -83.9436 190° South 463 533 29,800 1,016 Climbing Indianapolis Center
Fri 11:06:45 AM 40.5325 -83.9819 193° South 462 532 31,000 968 Climbing Indianapolis Center
Fri 11:07:47 AM 40.4117 -84.0253 195° South 453 521 31,800 774 Climbing Indianapolis Center
Fri 11:08:49 AM 40.2881 -84.0525 190° South 450 518 32,600 871 Climbing Indianapolis Center
Fri 11:09:51 AM 40.1383 -84.0783 188° South 455 524 33,600 677 Climbing Indianapolis Center
Fri 11:10:53 AM 40.0139 -84.0994 187° South 454 522 34,000 194 Climbing Indianapolis Center
Fri 11:11:55 AM 39.8881 -84.1189 187° South 456 525 34,000  Level Indianapolis Center
Fri 11:12:57 AM 39.7628 -84.1369 186° South 457 526 34,000  Level Indianapolis Center
Fri 11:13:59 AM 39.6383 -84.1486 184° South 454 522 34,000  Level Indianapolis Center
Fri 11:15:01 AM 39.4886 -84.1697 186° South 453 521 34,000  Level Indianapolis Center
Fri 11:16:03 AM 39.3669 -84.1939 189° South 449 517 34,000  Level Indianapolis Center
Fri 11:17:05 AM 39.2411 -84.2092 185° South 454 522 34,000  Level Indianapolis Center
Fri 11:18:07 AM 39.1183 -84.2208 184° South 447 514 34,000  Level Indianapolis Center
Fri 11:19:09 AM 38.9956 -84.2417 188° South 446 513 34,000  Level Indianapolis Center
Fri 11:20:10 AM 38.8747 -84.2708 191° South 441 507 34,000  Level Indianapolis Center
Fri 11:21:12 AM 38.7283 -84.3003 189° South 443 510 34,000  Level Indianapolis Center
Fri 11:22:14 AM 38.6122 -84.3142 185° South 440 506 34,000  Level Indianapolis Center
Fri 11:23:16 AM 38.4900 -84.3303 186° South 441 507 34,000  Level Indianapolis Center
Fri 11:24:18 AM 38.3678 -84.3494 187° South 440 506 34,000  Level Indianapolis Center
Fri 11:25:19 AM 38.2303 -84.3853 192° South 433 498 34,000 -146 Level Indianapolis Center
Fri 11:26:21 AM 38.1133 -84.4211 194° South 432 497 33,700 -581 Descending Indianapolis Center
Fri 11:27:23 AM 37.9989 -84.4622 196° South 426 490 32,800 -823 Descending Indianapolis Center
Fri 11:28:25 AM 37.8869 -84.5247 204° Southwest 434 499 32,000 -387 Descending Indianapolis Center
Fri 11:29:27 AM 37.7686 -84.5767 199° South 448 516 32,000  Level Indianapolis Center
Fri 11:30:28 AM 37.6525 -84.6381 203° Southwest 453 521 32,000  Level Indianapolis Center
Fri 11:31:30 AM 37.5200 -84.7181 206° Southwest 452 520 32,000  Level Indianapolis Center
Fri 11:32:32 AM 37.4069 -84.7886 206° Southwest 452 520 32,000 -387 Level Indianapolis Center
Fri 11:33:34 AM 37.2953 -84.8589 207° Southwest 449 517 31,200 -829 Descending Indianapolis Center
Fri 11:34:35 AM 37.1831 -84.9308 207° Southwest 452 520 30,300 -927 Descending Indianapolis Center
Fri 11:35:37 AM 37.0711 -85.0058 208° Southwest 456 525 29,300 -1,258 Descending Indianapolis Center
Fri 11:36:39 AM 36.9678 -85.0864 212° Southwest 429 494 27,700 -2,226 Descending Indianapolis Center
Fri 11:37:41 AM 36.8983 -85.2000 233° Southwest 414 476 24,700 -2,488 Descending Indianapolis Center
Fri 11:38:42 AM 36.8211 -85.3042 227° Southwest 410 472 22,600 -1,317 Descending Indianapolis Center
Fri 11:39:44 AM 36.7347 -85.4317 230° Southwest 405 466 22,000 -339 Descending Indianapolis Center
Fri 11:40:46 AM 36.6628 -85.5453 232° Southwest 415 478 21,900 -1,220 Descending Indianapolis Center
Fri 11:41:47 AM 36.6028 -85.6600 237° Southwest 400 460 19,500 -2,146 Descending Indianapolis Center
Fri 11:42:49 AM 36.5531 -85.7758 242° Southwest 382 440 17,500 -2,293 Descending Indianapolis Center
Fri 11:43:50 AM 36.5064 -85.9036 246° West 378 435 14,800 -2,976 Descending Indianapolis Center
Fri 11:44:52 AM 36.4661 -86.0158 246° West 360 414 11,400 -1,462 Descending Indianapolis Center
Fri 11:46:26 AM 36.3833 -86.1833 238° Southwest 346 398 11,000 -290 Descending Nashville TRACON
Fri 11:46:56 AM 36.3608 -86.2242 236° Southwest 347 399 10,800 -600 Descending Indianapolis Center
Fri 11:47:36 AM 36.3272 -86.2817 234° Southwest 340 391 10,300 -1,188 Descending Memphis Center
Fri 11:48:37 AM 36.2781 -86.3744 237° Southwest 312 359 8,800 -1,650 Descending Memphis Center
Fri 11:49:36 AM 36.2367 -86.4536 237° Southwest 293 337 7,000 -1,600 Descending Memphis Center
Fri 11:50:37 AM 36.2019 -86.5400 244° Southwest 282 325 5,600 -992 Descending Memphis Center
Fri 11:51:37 AM 36.1386 -86.5792 207° Southwest 253 291 5,000 -650 Descending Memphis Center
Fri 11:52:37 AM 36.0767 -86.6050 199° South 238 274 4,300 -600 Descending Memphis Center
Fri 11:53:37 AM 36.0150 -86.6308 199° South 238 274 3,800 -650 Descending Memphis Center
Fri 11:54:37 AM 35.9617 -86.6564 201° Southwest 238 274 3,000 -350 Descending Memphis Center
Fri 11:55:37 AM 35.9761 -86.7225 285° West 182 209 3,100 -150 Climbing Memphis Center
Fri 11:56:37 AM 36.0322 -86.7225 360° North 145 167 2,700 -400 Descending Memphis Center

Login

Don't have an account? Register now (free) for customized features, flight alerts, and more!